TimeCDT,TemperatureF,Dew PointF,Humidity,Sea Level PressureIn,VisibilityMPH,Wind Direction,Wind SpeedMPH,Gust SpeedMPH,PrecipitationIn,Events,Conditions,WindDirDegrees,DateUTC
12:14 AM,68.0,60.8,78,29.71,10.0,SSE,6.9,-,N/A,,Scattered Clouds,160,2013-05-19 05:14:00
12:34 AM,69.8,60.8,73,29.71,10.0,South,10.4,-,N/A,,Mostly Cloudy,170,2013-05-19 05:34:00
12:54 AM,69.8,60.8,73,29.71,10.0,South,10.4,-,N/A,,Overcast,170,2013-05-19 05:54:00
1:14 AM,69.8,60.8,73,29.71,10.0,South,10.4,-,N/A,,Overcast,180,2013-05-19 06:14:00
1:34 AM,71.6,60.8,69,29.70,10.0,South,12.7,-,N/A,,Overcast,180,2013-05-19 06:34:00
1:54 AM,73.4,62.6,69,29.70,10.0,South,12.7,18.4,N/A,,Overcast,180,2013-05-19 06:54:00
2:14 AM,73.4,62.6,69,29.69,10.0,South,15.0,21.9,N/A,,Mostly Cloudy,190,2013-05-19 07:14:00
2:34 AM,73.4,62.6,69,29.69,10.0,South,12.7,20.7,N/A,,Mostly Cloudy,190,2013-05-19 07:34:00
2:54 AM,73.4,62.6,69,29.70,10.0,South,13.8,17.3,N/A,,Mostly Cloudy,180,2013-05-19 07:54:00
3:14 AM,71.6,62.6,73,29.69,10.0,South,12.7,21.9,N/A,,Mostly Cloudy,180,2013-05-19 08:14:00
3:32 AM,71.6,62.6,73,29.68,10.0,South,12.7,19.6,N/A,Thunderstorm,Mostly Cloudy,180,2013-05-19 08:32:00
3:52 AM,69.8,64.4,83,29.71,2.5,SW,24.2,35.7,0.23,Rain-Thunderstorm,Heavy Thunderstorms and Rain,220,2013-05-19 08:52:00
4:14 AM,62.6,62.6,100,29.72,10.0,SSW,6.9,-,0.24,Rain-Thunderstorm,Thunderstorms and Rain,210,2013-05-19 09:14:00
4:34 AM,62.6,62.6,100,29.69,10.0,Calm,Calm,-,0.30,Rain-Thunderstorm,Rain,0,2013-05-19 09:34:00
4:54 AM,62.6,62.6,100,29.70,10.0,SE,10.4,-,0.31,Rain,Light Rain,130,2013-05-19 09:54:00
5:14 AM,62.6,62.6,100,29.66,10.0,ESE,8.1,-,0.01,,Mostly Cloudy,110,2013-05-19 10:14:00
5:34 AM,62.6,62.6,100,29.65,10.0,SE,6.9,-,0.01,Rain,Light Rain,140,2013-05-19 10:34:00
5:54 AM,62.6,62.6,100,29.65,10.0,SE,13.8,-,0.01,,Clear,140,2013-05-19 10:54:00
6:13 AM,62.6,62.6,100,29.65,7.0,SSE,10.4,-,N/A,,Clear,150,2013-05-19 11:13:00
6:33 AM,64.4,64.4,100,29.62,7.0,SE,15.0,-,N/A,,Scattered Clouds,140,2013-05-19 11:33:00
7:14 AM,64.4,64.4,100,29.55,4.0,East,15.0,21.9,N/A,,Clear,100,2013-05-19 12:14:00
7:34 AM,64.4,64.4,100,29.60,4.0,SSE,12.7,-,N/A,,Scattered Clouds,150,2013-05-19 12:34:00
7:54 AM,64.4,64.4,100,29.62,4.0,SSE,13.8,-,N/A,,Scattered Clouds,160,2013-05-19 12:54:00
8:14 AM,64.4,64.4,100,29.64,4.0,South,15.0,-,N/A,,Scattered Clouds,170,2013-05-19 13:14:00
8:34 AM,64.4,64.4,100,29.66,4.0,South,8.1,16.1,N/A,,Scattered Clouds,190,2013-05-19 13:34:00
8:54 AM,66.2,66.2,100,29.65,5.0,South,13.8,20.7,N/A,,Scattered Clouds,180,2013-05-19 13:54:00
9:14 AM,66.2,66.2,100,29.65,7.0,South,15.0,-,N/A,,Scattered Clouds,180,2013-05-19 14:14:00
9:54 AM,69.8,64.4,83,29.64,10.0,South,16.1,24.2,N/A,,Clear,190,2013-05-19 14:54:00
10:14 AM,71.6,64.4,78,29.64,10.0,SSW,15.0,23.0,N/A,,Scattered Clouds,200,2013-05-19 15:14:00
10:34 AM,71.6,66.2,83,29.64,10.0,SSW,13.8,20.7,N/A,,Scattered Clouds,200,2013-05-19 15:34:00
10:54 AM,71.6,64.4,78,29.64,10.0,SSW,12.7,23.0,N/A,,Mostly Cloudy,200,2013-05-19 15:54:00
11:14 AM,73.4,64.4,73,29.63,10.0,SW,16.1,23.0,N/A,,Mostly Cloudy,220,2013-05-19 16:14:00
11:34 AM,73.4,64.4,73,29.64,10.0,SW,10.4,21.9,N/A,,Scattered Clouds,220,2013-05-19 16:34:00
11:54 AM,73.4,62.6,69,29.64,10.0,SW,17.3,21.9,N/A,,Mostly Cloudy,230,2013-05-19 16:54:00
12:14 PM,73.4,64.4,73,29.64,10.0,WSW,15.0,21.9,N/A,,Mostly Cloudy,250,2013-05-19 17:14:00
12:34 PM,75.2,64.4,69,29.63,10.0,WSW,10.4,-,N/A,,Scattered Clouds,240,2013-05-19 17:34:00
12:54 PM,73.4,62.6,69,29.63,10.0,SW,13.8,-,N/A,,Mostly Cloudy,220,2013-05-19 17:54:00
1:14 PM,75.2,64.4,69,29.62,10.0,SW,10.4,18.4,N/A,,Mostly Cloudy,230,2013-05-19 18:14:00
1:34 PM,75.2,64.4,69,29.61,10.0,SW,13.8,21.9,N/A,,Scattered Clouds,230,2013-05-19 18:34:00
2:14 PM,73.4,62.6,69,29.61,10.0,SW,11.5,-,N/A,,Clear,230,2013-05-19 19:14:00
2:34 PM,71.6,62.6,73,29.63,10.0,SW,11.5,-,N/A,,Clear,230,2013-05-19 19:34:00
3:14 PM,71.6,64.4,78,29.63,10.0,WSW,9.2,-,N/A,Rain,Light Rain,240,2013-05-19 20:14:00
3:34 PM,71.6,64.4,78,29.63,10.0,SW,6.9,-,N/A,,Light Drizzle,230,2013-05-19 20:34:00
3:53 PM,71.6,64.4,78,29.63,10.0,SW,9.2,-,N/A,,Light Drizzle,220,2013-05-19 20:53:00
4:14 PM,69.8,64.4,83,29.63,7.0,WSW,8.1,-,N/A,Rain,Rain,240,2013-05-19 21:14:00
4:34 PM,68.0,64.4,88,29.63,7.0,SW,5.8,-,0.01,Rain,Light Rain,230,2013-05-19 21:34:00
4:54 PM,68.0,66.2,94,29.62,7.0,West,5.8,-,0.02,Rain,Rain,270,2013-05-19 21:54:00
5:14 PM,66.2,66.2,100,29.62,5.0,West,5.8,-,N/A,,Drizzle,260,2013-05-19 22:14:00
5:34 PM,66.2,64.4,94,29.62,7.0,WSW,9.2,-,0.01,,Drizzle,240,2013-05-19 22:34:00
5:54 PM,66.2,62.6,88,29.62,10.0,WSW,5.8,-,0.02,Rain,Light Rain,240,2013-05-19 22:54:00
6:14 PM,66.2,64.4,94,29.62,10.0,Calm,Calm,-,0.02,Rain,Light Rain,0,2013-05-19 23:14:00
6:34 PM,66.2,64.4,94,29.60,7.0,South,4.6,-,0.03,Rain,Light Rain,170,2013-05-19 23:34:00
6:54 PM,66.2,64.4,94,29.59,7.0,SE,6.9,-,0.04,Rain,Light Rain,140,2013-05-19 23:54:00
7:14 PM,66.2,64.4,94,29.56,7.0,SE,13.8,-,N/A,,Light Drizzle,130,2013-05-20 00:14:00
7:34 PM,66.2,64.4,94,29.55,4.0,SE,8.1,-,N/A,,Clear,140,2013-05-20 00:34:00
7:53 PM,64.4,64.4,100,29.56,5.0,SSE,8.1,-,N/A,,Clear,160,2013-05-20 00:53:00
8:14 PM,66.2,62.6,88,29.56,7.0,SSE,8.1,-,N/A,,Clear,160,2013-05-20 01:14:00
8:34 PM,64.4,62.6,94,29.59,7.0,SSW,5.8,-,N/A,,Clear,200,2013-05-20 01:34:00
8:54 PM,64.4,62.6,94,29.60,7.0,SSW,6.9,-,N/A,,Scattered Clouds,210,2013-05-20 01:54:00
9:14 PM,64.4,62.6,94,29.59,7.0,SW,8.1,-,N/A,,Scattered Clouds,230,2013-05-20 02:14:00
9:34 PM,64.4,62.6,94,29.58,7.0,SSW,3.5,-,N/A,,Clear,210,2013-05-20 02:34:00
9:54 PM,64.4,62.6,94,29.57,10.0,Calm,Calm,-,N/A,,Clear,0,2013-05-20 02:54:00
10:14 PM,62.6,62.6,100,29.58,3.0,SSE,3.5,-,N/A,,Clear,150,2013-05-20 03:14:00
10:34 PM,62.6,62.6,100,29.57,7.0,SE,3.5,-,N/A,,Clear,130,2013-05-20 03:34:00
11:14 PM,62.6,60.8,94,29.55,10.0,ESE,4.6,-,N/A,,Overcast,120,2013-05-20 04:14:00
11:34 PM,62.6,60.8,94,29.55,10.0,ESE,6.9,-,N/A,,Overcast,120,2013-05-20 04:34:00
11:54 PM,62.6,60.8,94,29.54,7.0,ESE,12.7,-,N/A,,Overcast,110,2013-05-20 04:54:00